sensor_id;sensor_type;location;lat;lon;timestamp;temperature;humidity
38458;DHT22;24239;48.058;10.486;2023-02-15T00:01:46;-1.60;99.90
38458;DHT22;24239;48.058;10.486;2023-02-15T00:04:13;-1.80;99.90
38458;DHT22;24239;48.058;10.486;2023-02-15T00:06:39;-1.80;99.90
38458;DHT22;24239;48.058;10.486;2023-02-15T00:09:05;-1.70;99.90
38458;DHT22;24239;48.058;10.486;2023-02-15T00:11:31;-1.80;99.90
38458;DHT22;24239;48.058;10.486;2023-02-15T00:14:07;-1.70;99.90
38458;DHT22;24239;48.058;10.486;2023-02-15T00:16:33;-1.80;99.90
38458;DHT22;24239;48.058;10.486;2023-02-15T00:18:59;-1.50;99.90
38458;DHT22;24239;48.058;10.486;2023-02-15T00:21:27;-1.90;99.90
38458;DHT22;24239;48.058;10.486;2023-02-15T00:23:54;-1.50;99.90
38458;DHT22;24239;48.058;10.486;2023-02-15T00:26:20;-1.80;99.90
38458;DHT22;24239;48.058;10.486;2023-02-15T00:28:46;-1.80;99.90
38458;DHT22;24239;48.058;10.486;2023-02-15T00:31:12;-1.80;99.90
38458;DHT22;24239;48.058;10.486;2023-02-15T00:33:38;-1.80;99.90
38458;DHT22;24239;48.058;10.486;2023-02-15T00:36:05;-1.80;99.90
38458;DHT22;24239;48.058;10.486;2023-02-15T00:38:31;-1.90;99.90
38458;DHT22;24239;48.058;10.486;2023-02-15T00:40:59;-1.90;99.90
38458;DHT22;24239;48.058;10.486;2023-02-15T00:43:25;-1.80;99.90
38458;DHT22;24239;48.058;10.486;2023-02-15T00:45:54;-1.80;99.90
38458;DHT22;24239;48.058;10.486;2023-02-15T00:48:20;-1.80;99.90
38458;DHT22;24239;48.058;10.486;2023-02-15T00:50:48;-1.60;99.90
38458;DHT22;24239;48.058;10.486;2023-02-15T00:53:17;-1.90;99.90
38458;DHT22;24239;48.058;10.486;2023-02-15T00:55:43;-1.90;99.90
38458;DHT22;24239;48.058;10.486;2023-02-15T00:58:09;-1.80;99.90
38458;DHT22;24239;48.058;10.486;2023-02-15T01:00:35;-1.20;99.90
38458;DHT22;24239;48.058;10.486;2023-02-15T01:03:04;-2.00;99.90
38458;DHT22;24239;48.058;10.486;2023-02-15T01:05:30;-1.90;99.90
38458;DHT22;24239;48.058;10.486;2023-02-15T01:07:56;-1.90;99.90
38458;DHT22;24239;48.058;10.486;2023-02-15T01:10:22;-1.50;99.90
38458;DHT22;24239;48.058;10.486;2023-02-15T01:12:48;-1.80;99.90
38458;DHT22;24239;48.058;10.486;2023-02-15T01:15:15;-1.90;99.90
38458;DHT22;24239;48.058;10.486;2023-02-15T01:17:40;-1.90;99.90
38458;DHT22;24239;48.058;10.486;2023-02-15T01:20:07;-2.00;99.90
38458;DHT22;24239;48.058;10.486;2023-02-15T01:22:33;-2.00;99.90
38458;DHT22;24239;48.058;10.486;2023-02-15T01:24:58;-2.00;99.90
38458;DHT22;24239;48.058;10.486;2023-02-15T01:27:24;-2.10;99.90
38458;DHT22;24239;48.058;10.486;2023-02-15T01:29:50;-2.00;99.90
38458;DHT22;24239;48.058;10.486;2023-02-15T01:32:16;-2.10;99.90
38458;DHT22;24239;48.058;10.486;2023-02-15T01:34:41;-2.10;99.90
38458;DHT22;24239;48.058;10.486;2023-02-15T01:37:07;-1.90;99.90
38458;DHT22;24239;48.058;10.486;2023-02-15T01:39:35;-2.10;99.90
38458;DHT22;24239;48.058;10.486;2023-02-15T01:42:03;-2.20;99.90
38458;DHT22;24239;48.058;10.486;2023-02-15T01:47:16;-2.20;99.90
38458;DHT22;24239;48.058;10.486;2023-02-15T01:49:43;-2.10;99.90
38458;DHT22;24239;48.058;10.486;2023-02-15T01:52:13;-2.10;99.90
38458;DHT22;24239;48.058;10.486;2023-02-15T01:54:39;-2.20;99.90
38458;DHT22;24239;48.058;10.486;2023-02-15T01:57:10;-2.10;99.90
38458;DHT22;24239;48.058;10.486;2023-02-15T01:59:37;-1.90;99.90
38458;DHT22;24239;48.058;10.486;2023-02-15T02:02:05;-2.20;99.90
38458;DHT22;24239;48.058;10.486;2023-02-15T02:04:52;-1.90;99.90
38458;DHT22;24239;48.058;10.486;2023-02-15T02:07:19;-2.20;99.90
38458;DHT22;24239;48.058;10.486;2023-02-15T02:09:46;-2.20;99.90
38458;DHT22;24239;48.058;10.486;2023-02-15T02:12:12;-2.10;99.90
38458;DHT22;24239;48.058;10.486;2023-02-15T02:14:38;-2.20;99.90
38458;DHT22;24239;48.058;10.486;2023-02-15T02:24:52;-2.20;99.90
38458;DHT22;24239;48.058;10.486;2023-02-15T02:43:18;-2.30;99.90
38458;DHT22;24239;48.058;10.486;2023-02-15T02:45:53;-2.20;99.90
38458;DHT22;24239;48.058;10.486;2023-02-15T02:48:26;-2.30;99.90
38458;DHT22;24239;48.058;10.486;2023-02-15T02:50:53;-2.40;99.90
38458;DHT22;24239;48.058;10.486;2023-02-15T02:53:19;-2.30;99.90
38458;DHT22;24239;48.058;10.486;2023-02-15T02:55:46;-2.40;99.90
38458;DHT22;24239;48.058;10.486;2023-02-15T03:00:52;-2.40;99.90
38458;DHT22;24239;48.058;10.486;2023-02-15T03:03:20;-2.50;99.90
38458;DHT22;24239;48.058;10.486;2023-02-15T03:05:47;-2.10;99.90
38458;DHT22;24239;48.058;10.486;2023-02-15T03:08:16;-2.10;99.90
38458;DHT22;24239;48.058;10.486;2023-02-15T03:10:52;-2.50;99.90
38458;DHT22;24239;48.058;10.486;2023-02-15T03:13:18;-2.20;99.90
38458;DHT22;24239;48.058;10.486;2023-02-15T03:15:44;-2.40;99.90
38458;DHT22;24239;48.058;10.486;2023-02-15T03:18:30;-2.40;99.90
38458;DHT22;24239;48.058;10.486;2023-02-15T03:20:57;-1.90;99.90
38458;DHT22;24239;48.058;10.486;2023-02-15T03:23:26;-2.40;99.90
38458;DHT22;24239;48.058;10.486;2023-02-15T03:25:56;-2.50;99.90
38458;DHT22;24239;48.058;10.486;2023-02-15T03:28:34;-2.60;99.90
38458;DHT22;24239;48.058;10.486;2023-02-15T03:31:01;-2.60;99.90
38458;DHT22;24239;48.058;10.486;2023-02-15T03:33:28;-2.40;99.90
38458;DHT22;24239;48.058;10.486;2023-02-15T03:38:25;-2.60;99.90
38458;DHT22;24239;48.058;10.486;2023-02-15T03:40:53;-2.60;99.90
38458;DHT22;24239;48.058;10.486;2023-02-15T03:46:28;-2.70;99.90
38458;DHT22;24239;48.058;10.486;2023-02-15T03:49:13;-2.70;99.90
38458;DHT22;24239;48.058;10.486;2023-02-15T03:51:42;-2.70;99.90
38458;DHT22;24239;48.058;10.486;2023-02-15T03:56:41;-2.80;99.90
38458;DHT22;24239;48.058;10.486;2023-02-15T03:59:07;-2.90;99.90
38458;DHT22;24239;48.058;10.486;2023-02-15T04:04:26;-2.90;99.90
38458;DHT22;24239;48.058;10.486;2023-02-15T04:06:53;-2.90;99.90
38458;DHT22;24239;48.058;10.486;2023-02-15T04:09:19;-2.80;99.90
38458;DHT22;24239;48.058;10.486;2023-02-15T04:12:03;-2.80;99.90
38458;DHT22;24239;48.058;10.486;2023-02-15T04:14:29;-3.00;99.90
38458;DHT22;24239;48.058;10.486;2023-02-15T04:17:14;-3.60;99.90
38458;DHT22;24239;48.058;10.486;2023-02-15T04:19:39;-3.00;99.90
38458;DHT22;24239;48.058;10.486;2023-02-15T04:22:24;-3.00;99.90
38458;DHT22;24239;48.058;10.486;2023-02-15T04:25:08;-2.90;99.90
38458;DHT22;24239;48.058;10.486;2023-02-15T04:27:44;-3.00;99.90
38458;DHT22;24239;48.058;10.486;2023-02-15T04:30:11;-2.90;99.90
38458;DHT22;24239;48.058;10.486;2023-02-15T04:32:40;-2.80;99.90
38458;DHT22;24239;48.058;10.486;2023-02-15T04:35:06;-2.90;99.90
38458;DHT22;24239;48.058;10.486;2023-02-15T04:37:32;-2.90;99.90
38458;DHT22;24239;48.058;10.486;2023-02-15T04:39:58;-2.90;99.90
38458;DHT22;24239;48.058;10.486;2023-02-15T04:42:24;-2.80;99.90
38458;DHT22;24239;48.058;10.486;2023-02-15T04:44:51;-2.80;99.90
38458;DHT22;24239;48.058;10.486;2023-02-15T04:47:17;-2.90;99.90
38458;DHT22;24239;48.058;10.486;2023-02-15T04:49:42;-2.70;99.90
38458;DHT22;24239;48.058;10.486;2023-02-15T04:52:08;-2.50;99.90
38458;DHT22;24239;48.058;10.486;2023-02-15T04:54:34;-2.80;99.90
38458;DHT22;24239;48.058;10.486;2023-02-15T04:57:02;-2.80;99.90
38458;DHT22;24239;48.058;10.486;2023-02-15T04:59:28;-2.90;99.90
38458;DHT22;24239;48.058;10.486;2023-02-15T05:01:53;-2.70;99.90
38458;DHT22;24239;48.058;10.486;2023-02-15T05:04:19;-2.90;99.90
38458;DHT22;24239;48.058;10.486;2023-02-15T05:06:45;-2.50;99.90
38458;DHT22;24239;48.058;10.486;2023-02-15T05:09:11;-3.10;99.90
38458;DHT22;24239;48.058;10.486;2023-02-15T05:11:37;-3.00;99.90
38458;DHT22;24239;48.058;10.486;2023-02-15T05:14:03;-2.80;99.90
38458;DHT22;24239;48.058;10.486;2023-02-15T05:16:29;-3.10;99.90
38458;DHT22;24239;48.058;10.486;2023-02-15T05:18:55;-3.00;99.90
38458;DHT22;24239;48.058;10.486;2023-02-15T05:21:21;-3.10;99.90
38458;DHT22;24239;48.058;10.486;2023-02-15T05:23:46;-2.70;99.90
38458;DHT22;24239;48.058;10.486;2023-02-15T05:26:17;-2.80;99.90
38458;DHT22;24239;48.058;10.486;2023-02-15T05:29:02;-3.10;99.90
38458;DHT22;24239;48.058;10.486;2023-02-15T05:31:29;-2.90;99.90
38458;DHT22;24239;48.058;10.486;2023-02-15T05:33:57;-3.30;99.90
38458;DHT22;24239;48.058;10.486;2023-02-15T05:36:22;-3.00;99.90
38458;DHT22;24239;48.058;10.486;2023-02-15T05:38:48;-2.80;99.90
38458;DHT22;24239;48.058;10.486;2023-02-15T05:41:14;-2.90;99.90
38458;DHT22;24239;48.058;10.486;2023-02-15T05:43:40;-3.00;99.90
38458;DHT22;24239;48.058;10.486;2023-02-15T05:46:06;-3.20;99.90
38458;DHT22;24239;48.058;10.486;2023-02-15T05:48:34;-3.30;99.90
38458;DHT22;24239;48.058;10.486;2023-02-15T05:51:02;-2.90;99.90
38458;DHT22;24239;48.058;10.486;2023-02-15T05:53:28;-3.50;99.90
38458;DHT22;24239;48.058;10.486;2023-02-15T05:55:54;-3.60;99.90
38458;DHT22;24239;48.058;10.486;2023-02-15T05:58:25;-3.40;99.90
38458;DHT22;24239;48.058;10.486;2023-02-15T06:00:51;-3.60;99.90
38458;DHT22;24239;48.058;10.486;2023-02-15T06:03:16;-3.80;99.90
38458;DHT22;24239;48.058;10.486;2023-02-15T06:05:42;-3.80;99.90
38458;DHT22;24239;48.058;10.486;2023-02-15T06:08:10;-3.90;99.90
38458;DHT22;24239;48.058;10.486;2023-02-15T06:10:36;-4.00;99.90
38458;DHT22;24239;48.058;10.486;2023-02-15T06:13:02;-3.00;99.90
38458;DHT22;24239;48.058;10.486;2023-02-15T06:15:28;-4.00;99.90
38458;DHT22;24239;48.058;10.486;2023-02-15T06:17:54;-4.10;99.90
38458;DHT22;24239;48.058;10.486;2023-02-15T06:20:19;-4.00;99.90
38458;DHT22;24239;48.058;10.486;2023-02-15T06:22:48;-4.10;99.90
38458;DHT22;24239;48.058;10.486;2023-02-15T06:25:13;-4.20;99.90
38458;DHT22;24239;48.058;10.486;2023-02-15T06:27:42;-4.30;99.90
38458;DHT22;24239;48.058;10.486;2023-02-15T06:30:09;-4.20;99.90
38458;DHT22;24239;48.058;10.486;2023-02-15T06:32:35;-4.20;99.90
38458;DHT22;24239;48.058;10.486;2023-02-15T06:35:01;-3.90;99.90
38458;DHT22;24239;48.058;10.486;2023-02-15T06:37:27;-3.80;99.90
38458;DHT22;24239;48.058;10.486;2023-02-15T06:39:52;-3.70;99.90
38458;DHT22;24239;48.058;10.486;2023-02-15T06:42:18;-4.60;99.90
38458;DHT22;24239;48.058;10.486;2023-02-15T06:44:44;-4.00;99.90
38458;DHT22;24239;48.058;10.486;2023-02-15T06:47:10;-3.70;99.90
38458;DHT22;24239;48.058;10.486;2023-02-15T06:49:36;-3.70;99.90
38458;DHT22;24239;48.058;10.486;2023-02-15T06:52:02;-4.10;99.90
38458;DHT22;24239;48.058;10.486;2023-02-15T06:54:28;-4.20;99.90
38458;DHT22;24239;48.058;10.486;2023-02-15T06:56:54;-4.20;99.90
38458;DHT22;24239;48.058;10.486;2023-02-15T06:59:22;-4.20;99.90
38458;DHT22;24239;48.058;10.486;2023-02-15T07:01:48;-4.10;99.90
38458;DHT22;24239;48.058;10.486;2023-02-15T07:04:17;-3.90;99.90
38458;DHT22;24239;48.058;10.486;2023-02-15T07:06:43;-3.60;99.90
38458;DHT22;24239;48.058;10.486;2023-02-15T07:09:08;-3.70;99.90
38458;DHT22;24239;48.058;10.486;2023-02-15T07:11:34;-3.80;99.90
38458;DHT22;24239;48.058;10.486;2023-02-15T07:14:19;-3.70;99.90
38458;DHT22;24239;48.058;10.486;2023-02-15T07:16:44;-3.50;99.90
38458;DHT22;24239;48.058;10.486;2023-02-15T07:19:10;-3.70;99.90
38458;DHT22;24239;48.058;10.486;2023-02-15T07:21:36;-3.70;99.90
38458;DHT22;24239;48.058;10.486;2023-02-15T07:24:02;-3.50;99.90
38458;DHT22;24239;48.058;10.486;2023-02-15T07:26:31;-3.50;99.90
38458;DHT22;24239;48.058;10.486;2023-02-15T07:28:57;-3.40;99.90
38458;DHT22;24239;48.058;10.486;2023-02-15T07:31:25;-3.50;99.90
38458;DHT22;24239;48.058;10.486;2023-02-15T07:33:53;-3.40;99.90
38458;DHT22;24239;48.058;10.486;2023-02-15T07:36:19;-3.20;99.90
38458;DHT22;24239;48.058;10.486;2023-02-15T07:38:47;-2.70;99.90
38458;DHT22;24239;48.058;10.486;2023-02-15T07:41:14;-3.20;99.90
38458;DHT22;24239;48.058;10.486;2023-02-15T07:43:41;-2.70;99.90
38458;DHT22;24239;48.058;10.486;2023-02-15T07:46:08;-3.10;99.90
38458;DHT22;24239;48.058;10.486;2023-02-15T07:48:34;-3.00;99.90
38458;DHT22;24239;48.058;10.486;2023-02-15T07:51:01;-3.10;99.90
38458;DHT22;24239;48.058;10.486;2023-02-15T07:53:27;-3.00;99.90
38458;DHT22;24239;48.058;10.486;2023-02-15T07:55:57;-2.90;99.90
38458;DHT22;24239;48.058;10.486;2023-02-15T07:58:23;-2.40;99.90
38458;DHT22;24239;48.058;10.486;2023-02-15T08:01:09;-2.80;99.90
38458;DHT22;24239;48.058;10.486;2023-02-15T08:03:34;-2.70;99.90
38458;DHT22;24239;48.058;10.486;2023-02-15T08:06:00;-2.90;99.90
38458;DHT22;24239;48.058;10.486;2023-02-15T08:08:26;-2.60;99.90
38458;DHT22;24239;48.058;10.486;2023-02-15T08:10:59;-2.60;99.90
38458;DHT22;24239;48.058;10.486;2023-02-15T08:13:46;-2.50;99.90
38458;DHT22;24239;48.058;10.486;2023-02-15T08:16:26;-2.40;99.90
38458;DHT22;24239;48.058;10.486;2023-02-15T08:18:52;-2.40;99.90
38458;DHT22;24239;48.058;10.486;2023-02-15T08:21:19;-2.10;99.90
38458;DHT22;24239;48.058;10.486;2023-02-15T08:23:45;-2.20;99.90
38458;DHT22;24239;48.058;10.486;2023-02-15T08:26:11;-2.00;99.90
38458;DHT22;24239;48.058;10.486;2023-02-15T08:28:36;-2.00;99.90
38458;DHT22;24239;48.058;10.486;2023-02-15T08:31:09;-1.90;99.90
38458;DHT22;24239;48.058;10.486;2023-02-15T08:33:35;-2.00;99.90
38458;DHT22;24239;48.058;10.486;2023-02-15T08:36:02;-1.80;99.90
38458;DHT22;24239;48.058;10.486;2023-02-15T08:38:28;-1.90;99.90
38458;DHT22;24239;48.058;10.486;2023-02-15T08:40:53;-1.60;99.90
38458;DHT22;24239;48.058;10.486;2023-02-15T08:43:19;-1.70;99.90
38458;DHT22;24239;48.058;10.486;2023-02-15T08:45:45;-1.60;99.90
38458;DHT22;24239;48.058;10.486;2023-02-15T08:48:11;-1.00;99.90
38458;DHT22;24239;48.058;10.486;2023-02-15T08:50:37;-1.50;99.90
38458;DHT22;24239;48.058;10.486;2023-02-15T08:53:03;-1.30;99.90
38458;DHT22;24239;48.058;10.486;2023-02-15T08:55:29;-1.30;99.90
38458;DHT22;24239;48.058;10.486;2023-02-15T08:57:57;-1.10;99.90
38458;DHT22;24239;48.058;10.486;2023-02-15T09:00:23;-1.20;99.90
38458;DHT22;24239;48.058;10.486;2023-02-15T09:02:48;-1.00;99.90
38458;DHT22;24239;48.058;10.486;2023-02-15T09:05:14;-1.00;99.90
38458;DHT22;24239;48.058;10.486;2023-02-15T09:07:40;-0.90;99.90
38458;DHT22;24239;48.058;10.486;2023-02-15T09:10:06;-0.80;99.90
38458;DHT22;24239;48.058;10.486;2023-02-15T09:12:32;-0.60;99.90
38458;DHT22;24239;48.058;10.486;2023-02-15T09:14:58;-0.60;99.90
38458;DHT22;24239;48.058;10.486;2023-02-15T09:17:24;-0.60;99.90
38458;DHT22;24239;48.058;10.486;2023-02-15T09:19:50;-0.40;99.90
38458;DHT22;24239;48.058;10.486;2023-02-15T09:22:19;-0.40;99.90
38458;DHT22;24239;48.058;10.486;2023-02-15T09:24:44;-0.30;99.90
38458;DHT22;24239;48.058;10.486;2023-02-15T09:27:10;-0.20;99.90
38458;DHT22;24239;48.058;10.486;2023-02-15T09:29:36;0.00;99.90
38458;DHT22;24239;48.058;10.486;2023-02-15T09:32:02;0.00;99.90
38458;DHT22;24239;48.058;10.486;2023-02-15T09:34:28;0.10;99.90
38458;DHT22;24239;48.058;10.486;2023-02-15T09:36:53;0.30;99.90
38458;DHT22;24239;48.058;10.486;2023-02-15T09:39:23;0.30;99.90
38458;DHT22;24239;48.058;10.486;2023-02-15T09:52:25;0.80;99.90
38458;DHT22;24239;48.058;10.486;2023-02-15T10:00:34;1.20;99.90
38458;DHT22;24239;48.058;10.486;2023-02-15T10:03:19;1.40;99.90
38458;DHT22;24239;48.058;10.486;2023-02-15T10:05:50;1.50;99.90
38458;DHT22;24239;48.058;10.486;2023-02-15T10:11:03;1.80;99.90
38458;DHT22;24239;48.058;10.486;2023-02-15T10:14:13;1.90;99.90
38458;DHT22;24239;48.058;10.486;2023-02-15T10:26:46;2.60;99.90
38458;DHT22;24239;48.058;10.486;2023-02-15T10:29:16;2.70;99.90
38458;DHT22;24239;48.058;10.486;2023-02-15T10:31:47;2.90;99.90
38458;DHT22;24239;48.058;10.486;2023-02-15T10:46:45;3.80;99.90
38458;DHT22;24239;48.058;10.486;2023-02-15T10:59:57;4.90;99.90
38458;DHT22;24239;48.058;10.486;2023-02-15T11:07:46;5.60;99.90
38458;DHT22;24239;48.058;10.486;2023-02-15T11:12:40;5.80;99.90
38458;DHT22;24239;48.058;10.486;2023-02-15T11:15:11;5.90;99.90
38458;DHT22;24239;48.058;10.486;2023-02-15T11:17:43;6.20;99.90
38458;DHT22;24239;48.058;10.486;2023-02-15T11:20:18;6.50;99.90
38458;DHT22;24239;48.058;10.486;2023-02-15T11:22:49;6.60;99.90
38458;DHT22;24239;48.058;10.486;2023-02-15T11:25:33;7.00;99.90
38458;DHT22;24239;48.058;10.486;2023-02-15T11:28:00;7.20;99.90
38458;DHT22;24239;48.058;10.486;2023-02-15T11:30:30;7.50;99.90
38458;DHT22;24239;48.058;10.486;2023-02-15T11:33:01;7.80;99.90
38458;DHT22;24239;48.058;10.486;2023-02-15T11:35:29;8.00;99.90
38458;DHT22;24239;48.058;10.486;2023-02-15T11:37:58;8.20;99.90
38458;DHT22;24239;48.058;10.486;2023-02-15T11:40:27;8.20;99.90
38458;DHT22;24239;48.058;10.486;2023-02-15T11:42:55;8.30;99.90
38458;DHT22;24239;48.058;10.486;2023-02-15T11:45:31;8.20;99.90
38458;DHT22;24239;48.058;10.486;2023-02-15T11:47:58;8.50;99.90
38458;DHT22;24239;48.058;10.486;2023-02-15T11:50:28;8.60;99.90
38458;DHT22;24239;48.058;10.486;2023-02-15T11:52:59;8.70;99.90
38458;DHT22;24239;48.058;10.486;2023-02-15T11:55:25;8.70;99.90
38458;DHT22;24239;48.058;10.486;2023-02-15T11:57:55;8.80;99.90
38458;DHT22;24239;48.058;10.486;2023-02-15T12:00:25;8.80;99.90
38458;DHT22;24239;48.058;10.486;2023-02-15T12:02:56;8.80;99.90
38458;DHT22;24239;48.058;10.486;2023-02-15T12:05:25;9.10;99.90
38458;DHT22;24239;48.058;10.486;2023-02-15T12:07:55;9.20;99.90
38458;DHT22;24239;48.058;10.486;2023-02-15T12:10:24;9.30;99.90
38458;DHT22;24239;48.058;10.486;2023-02-15T12:15:35;9.40;99.90
38458;DHT22;24239;48.058;10.486;2023-02-15T12:20:58;9.50;99.90
38458;DHT22;24239;48.058;10.486;2023-02-15T12:23:25;9.70;99.90
38458;DHT22;24239;48.058;10.486;2023-02-15T12:25:54;9.80;99.90
38458;DHT22;24239;48.058;10.486;2023-02-15T12:30:47;10.10;99.90
38458;DHT22;24239;48.058;10.486;2023-02-15T12:35:41;10.30;99.60
38458;DHT22;24239;48.058;10.486;2023-02-15T12:40:37;10.40;99.50
38458;DHT22;24239;48.058;10.486;2023-02-15T12:43:03;10.50;99.90
38458;DHT22;24239;48.058;10.486;2023-02-15T12:45:34;10.40;99.90
38458;DHT22;24239;48.058;10.486;2023-02-15T12:50:45;10.50;99.90
38458;DHT22;24239;48.058;10.486;2023-02-15T12:53:16;10.50;99.90
38458;DHT22;24239;48.058;10.486;2023-02-15T12:55:57;10.50;99.90
38458;DHT22;24239;48.058;10.486;2023-02-15T12:58:24;10.40;99.90
38458;DHT22;24239;48.058;10.486;2023-02-15T13:03:56;10.30;99.90
38458;DHT22;24239;48.058;10.486;2023-02-15T13:06:23;10.20;99.90
38458;DHT22;24239;48.058;10.486;2023-02-15T13:08:49;10.10;99.90
38458;DHT22;24239;48.058;10.486;2023-02-15T13:11:26;10.10;99.90
38458;DHT22;24239;48.058;10.486;2023-02-15T13:18:52;10.20;99.90
38458;DHT22;24239;48.058;10.486;2023-02-15T13:21:21;10.00;99.90
38458;DHT22;24239;48.058;10.486;2023-02-15T13:24:00;10.20;99.90
38458;DHT22;24239;48.058;10.486;2023-02-15T13:26:29;10.30;99.90
38458;DHT22;24239;48.058;10.486;2023-02-15T13:28:56;10.40;99.90
38458;DHT22;24239;48.058;10.486;2023-02-15T13:31:24;10.50;99.90
38458;DHT22;24239;48.058;10.486;2023-02-15T13:33:54;10.60;99.90
38458;DHT22;24239;48.058;10.486;2023-02-15T13:36:43;10.70;99.90
38458;DHT22;24239;48.058;10.486;2023-02-15T13:49:31;10.80;99.90
38458;DHT22;24239;48.058;10.486;2023-02-15T13:52:19;10.80;99.90
38458;DHT22;24239;48.058;10.486;2023-02-15T14:02:30;10.70;99.90
38458;DHT22;24239;48.058;10.486;2023-02-15T14:05:06;10.70;99.90
38458;DHT22;24239;48.058;10.486;2023-02-15T14:07:53;10.70;99.90
38458;DHT22;24239;48.058;10.486;2023-02-15T14:18:07;10.50;99.90
38458;DHT22;24239;48.058;10.486;2023-02-15T14:25:58;10.60;99.90
38458;DHT22;24239;48.058;10.486;2023-02-15T14:30:53;10.40;99.90
38458;DHT22;24239;48.058;10.486;2023-02-15T14:35:45;10.40;99.90
38458;DHT22;24239;48.058;10.486;2023-02-15T14:40:43;10.30;99.90
38458;DHT22;24239;48.058;10.486;2023-02-15T14:45:58;10.50;99.90
38458;DHT22;24239;48.058;10.486;2023-02-15T14:48:31;10.60;99.90
38458;DHT22;24239;48.058;10.486;2023-02-15T14:50:58;10.60;99.90
38458;DHT22;24239;48.058;10.486;2023-02-15T14:53:32;10.60;99.90
38458;DHT22;24239;48.058;10.486;2023-02-15T15:01:27;10.50;99.90
38458;DHT22;24239;48.058;10.486;2023-02-15T15:03:54;10.40;99.90
38458;DHT22;24239;48.058;10.486;2023-02-15T15:06:32;10.40;99.90
38458;DHT22;24239;48.058;10.486;2023-02-15T15:09:00;10.40;99.90
38458;DHT22;24239;48.058;10.486;2023-02-15T15:13:59;10.60;99.90
38458;DHT22;24239;48.058;10.486;2023-02-15T15:18:54;10.40;99.90
38458;DHT22;24239;48.058;10.486;2023-02-15T15:24:05;10.30;99.90
38458;DHT22;24239;48.058;10.486;2023-02-15T15:26:31;10.40;99.90
38458;DHT22;24239;48.058;10.486;2023-02-15T15:29:06;10.30;99.90
38458;DHT22;24239;48.058;10.486;2023-02-15T15:31:37;10.20;99.90
38458;DHT22;24239;48.058;10.486;2023-02-15T15:41:54;9.90;99.90
38458;DHT22;24239;48.058;10.486;2023-02-15T15:49:48;9.40;99.90
38458;DHT22;24239;48.058;10.486;2023-02-15T15:52:14;9.20;99.90
38458;DHT22;24239;48.058;10.486;2023-02-15T15:54:41;9.00;99.90
38458;DHT22;24239;48.058;10.486;2023-02-15T15:57:12;8.90;99.90
38458;DHT22;24239;48.058;10.486;2023-02-15T15:59:43;8.70;99.90
38458;DHT22;24239;48.058;10.486;2023-02-15T16:02:13;8.70;99.90
38458;DHT22;24239;48.058;10.486;2023-02-15T16:04:41;8.60;99.90
38458;DHT22;24239;48.058;10.486;2023-02-15T16:12:20;8.10;99.90
38458;DHT22;24239;48.058;10.486;2023-02-15T16:14:46;8.00;99.90
38458;DHT22;24239;48.058;10.486;2023-02-15T16:17:25;7.80;99.90
38458;DHT22;24239;48.058;10.486;2023-02-15T16:19:53;7.50;99.90
38458;DHT22;24239;48.058;10.486;2023-02-15T16:22:23;7.30;99.90
38458;DHT22;24239;48.058;10.486;2023-02-15T16:27:38;6.70;99.90
38458;DHT22;24239;48.058;10.486;2023-02-15T16:32:45;6.50;99.90
38458;DHT22;24239;48.058;10.486;2023-02-15T16:35:15;6.20;99.90
38458;DHT22;24239;48.058;10.486;2023-02-15T16:37:42;6.00;99.90
38458;DHT22;24239;48.058;10.486;2023-02-15T16:40:25;5.90;99.90
38458;DHT22;24239;48.058;10.486;2023-02-15T16:42:55;5.60;99.90
38458;DHT22;24239;48.058;10.486;2023-02-15T16:45:22;5.40;99.90
38458;DHT22;24239;48.058;10.486;2023-02-15T16:47:49;5.20;99.90
38458;DHT22;24239;48.058;10.486;2023-02-15T16:50:17;5.00;99.90
38458;DHT22;24239;48.058;10.486;2023-02-15T16:52:43;4.80;99.90
38458;DHT22;24239;48.058;10.486;2023-02-15T16:55:22;4.80;99.90
38458;DHT22;24239;48.058;10.486;2023-02-15T16:57:48;4.60;99.90
38458;DHT22;24239;48.058;10.486;2023-02-15T17:02:52;4.30;99.90
38458;DHT22;24239;48.058;10.486;2023-02-15T17:05:20;4.30;99.90
38458;DHT22;24239;48.058;10.486;2023-02-15T17:13:15;3.80;99.90
38458;DHT22;24239;48.058;10.486;2023-02-15T17:15:42;3.60;99.90
38458;DHT22;24239;48.058;10.486;2023-02-15T17:18:16;3.50;99.90
38458;DHT22;24239;48.058;10.486;2023-02-15T17:20:43;3.40;99.90
38458;DHT22;24239;48.058;10.486;2023-02-15T17:25:48;3.20;99.90
38458;DHT22;24239;48.058;10.486;2023-02-15T17:28:31;3.00;99.90
38458;DHT22;24239;48.058;10.486;2023-02-15T17:30:57;3.00;99.90
38458;DHT22;24239;48.058;10.486;2023-02-15T17:33:25;2.80;99.90
38458;DHT22;24239;48.058;10.486;2023-02-15T17:38:37;2.70;99.90
38458;DHT22;24239;48.058;10.486;2023-02-15T17:41:03;2.70;99.90
38458;DHT22;24239;48.058;10.486;2023-02-15T17:43:31;2.50;99.90
38458;DHT22;24239;48.058;10.486;2023-02-15T17:45:57;2.40;99.90
38458;DHT22;24239;48.058;10.486;2023-02-15T17:51:03;2.30;99.90
38458;DHT22;24239;48.058;10.486;2023-02-15T17:53:29;2.30;99.90
38458;DHT22;24239;48.058;10.486;2023-02-15T17:55:55;2.20;99.90
38458;DHT22;24239;48.058;10.486;2023-02-15T17:58:20;2.20;99.90
38458;DHT22;24239;48.058;10.486;2023-02-15T18:00:56;2.20;99.90
38458;DHT22;24239;48.058;10.486;2023-02-15T18:03:42;2.00;99.90
38458;DHT22;24239;48.058;10.486;2023-02-15T18:06:27;2.10;99.90
38458;DHT22;24239;48.058;10.486;2023-02-15T18:09:15;2.00;99.90
38458;DHT22;24239;48.058;10.486;2023-02-15T18:12:00;1.90;99.90
38458;DHT22;24239;48.058;10.486;2023-02-15T18:14:26;1.80;99.90
38458;DHT22;24239;48.058;10.486;2023-02-15T18:16:52;1.70;99.90
38458;DHT22;24239;48.058;10.486;2023-02-15T18:19:23;1.60;99.90
38458;DHT22;24239;48.058;10.486;2023-02-15T18:21:49;1.60;99.90
38458;DHT22;24239;48.058;10.486;2023-02-15T18:24:21;1.60;99.90
38458;DHT22;24239;48.058;10.486;2023-02-15T18:26:48;1.60;99.90
38458;DHT22;24239;48.058;10.486;2023-02-15T18:29:15;1.40;99.90
38458;DHT22;24239;48.058;10.486;2023-02-15T18:31:40;1.30;99.90
38458;DHT22;24239;48.058;10.486;2023-02-15T18:34:13;1.40;99.90
38458;DHT22;24239;48.058;10.486;2023-02-15T18:36:45;1.20;99.90
38458;DHT22;24239;48.058;10.486;2023-02-15T18:39:19;1.20;99.90
38458;DHT22;24239;48.058;10.486;2023-02-15T18:41:47;1.30;99.90
38458;DHT22;24239;48.058;10.486;2023-02-15T18:44:13;1.20;99.90
38458;DHT22;24239;48.058;10.486;2023-02-15T18:46:39;1.30;99.90
38458;DHT22;24239;48.058;10.486;2023-02-15T18:49:05;1.10;99.90
38458;DHT22;24239;48.058;10.486;2023-02-15T18:51:30;1.10;99.90
38458;DHT22;24239;48.058;10.486;2023-02-15T18:53:56;1.00;99.90
38458;DHT22;24239;48.058;10.486;2023-02-15T18:56:22;1.00;99.90
38458;DHT22;24239;48.058;10.486;2023-02-15T18:58:48;0.80;99.90
38458;DHT22;24239;48.058;10.486;2023-02-15T19:01:15;0.80;99.90
38458;DHT22;24239;48.058;10.486;2023-02-15T19:03:49;0.80;99.90
38458;DHT22;24239;48.058;10.486;2023-02-15T19:06:19;0.80;99.90
38458;DHT22;24239;48.058;10.486;2023-02-15T19:08:45;0.80;99.90